sensor_id;sensor_type;location;lat;lon;timestamp;P1;durP1;ratioP1;P2;durP2;ratioP2
39656;SDS011;25337;51.478;7.510;2022-08-19T00:00:44;21.05;;;11.93;;
39656;SDS011;25337;51.478;7.510;2022-08-19T00:03:10;18.40;;;11.40;;
39656;SDS011;25337;51.478;7.510;2022-08-19T00:08:02;20.13;;;10.98;;
39656;SDS011;25337;51.478;7.510;2022-08-19T00:10:28;18.05;;;10.90;;
39656;SDS011;25337;51.478;7.510;2022-08-19T00:12:54;18.08;;;10.88;;
39656;SDS011;25337;51.478;7.510;2022-08-19T00:15:20;19.23;;;10.20;;
39656;SDS011;25337;51.478;7.510;2022-08-19T00:17:47;17.92;;;11.88;;
39656;SDS011;25337;51.478;7.510;2022-08-19T00:20:14;18.15;;;10.68;;
39656;SDS011;25337;51.478;7.510;2022-08-19T00:22:43;19.53;;;11.40;;
39656;SDS011;25337;51.478;7.510;2022-08-19T00:25:10;17.90;;;10.40;;
39656;SDS011;25337;51.478;7.510;2022-08-19T00:27:37;18.27;;;10.57;;
39656;SDS011;25337;51.478;7.510;2022-08-19T00:30:03;19.02;;;10.52;;
39656;SDS011;25337;51.478;7.510;2022-08-19T00:32:30;19.98;;;11.57;;
39656;SDS011;25337;51.478;7.510;2022-08-19T00:34:56;17.05;;;10.77;;
39656;SDS011;25337;51.478;7.510;2022-08-19T00:37:22;19.30;;;12.35;;
39656;SDS011;25337;51.478;7.510;2022-08-19T00:39:51;20.60;;;11.48;;
39656;SDS011;25337;51.478;7.510;2022-08-19T00:42:17;20.20;;;12.13;;
39656;SDS011;25337;51.478;7.510;2022-08-19T00:44:43;20.48;;;11.73;;
39656;SDS011;25337;51.478;7.510;2022-08-19T00:47:09;19.92;;;11.93;;
39656;SDS011;25337;51.478;7.510;2022-08-19T00:49:37;21.27;;;12.27;;
39656;SDS011;25337;51.478;7.510;2022-08-19T00:52:14;22.13;;;12.75;;
39656;SDS011;25337;51.478;7.510;2022-08-19T00:54:43;21.08;;;12.25;;
39656;SDS011;25337;51.478;7.510;2022-08-19T00:57:13;21.73;;;12.60;;
39656;SDS011;25337;51.478;7.510;2022-08-19T00:59:44;22.13;;;12.55;;
39656;SDS011;25337;51.478;7.510;2022-08-19T01:04:39;22.25;;;11.70;;
39656;SDS011;25337;51.478;7.510;2022-08-19T01:07:05;21.13;;;11.98;;
39656;SDS011;25337;51.478;7.510;2022-08-19T01:09:31;21.85;;;11.80;;
39656;SDS011;25337;51.478;7.510;2022-08-19T01:11:56;21.33;;;13.25;;
39656;SDS011;25337;51.478;7.510;2022-08-19T01:14:22;23.30;;;11.95;;
39656;SDS011;25337;51.478;7.510;2022-08-19T01:16:49;24.65;;;13.13;;
39656;SDS011;25337;51.478;7.510;2022-08-19T01:19:23;21.13;;;12.75;;
39656;SDS011;25337;51.478;7.510;2022-08-19T01:24:48;23.25;;;13.32;;
39656;SDS011;25337;51.478;7.510;2022-08-19T01:27:14;20.85;;;12.85;;
39656;SDS011;25337;51.478;7.510;2022-08-19T01:29:41;22.15;;;12.93;;
39656;SDS011;25337;51.478;7.510;2022-08-19T01:32:09;23.38;;;13.32;;
39656;SDS011;25337;51.478;7.510;2022-08-19T01:34:37;25.35;;;13.02;;
39656;SDS011;25337;51.478;7.510;2022-08-19T01:37:07;25.05;;;13.90;;
39656;SDS011;25337;51.478;7.510;2022-08-19T01:39:36;23.05;;;12.98;;
39656;SDS011;25337;51.478;7.510;2022-08-19T01:42:02;21.05;;;13.23;;
39656;SDS011;25337;51.478;7.510;2022-08-19T01:44:29;22.50;;;13.02;;
39656;SDS011;25337;51.478;7.510;2022-08-19T01:46:55;22.48;;;13.38;;
39656;SDS011;25337;51.478;7.510;2022-08-19T01:49:22;20.77;;;12.55;;
39656;SDS011;25337;51.478;7.510;2022-08-19T01:51:50;21.60;;;12.25;;
39656;SDS011;25337;51.478;7.510;2022-08-19T01:54:17;22.20;;;13.65;;
39656;SDS011;25337;51.478;7.510;2022-08-19T01:56:43;21.55;;;12.48;;
39656;SDS011;25337;51.478;7.510;2022-08-19T01:59:13;26.67;;;13.30;;
39656;SDS011;25337;51.478;7.510;2022-08-19T02:01:42;20.92;;;12.75;;
39656;SDS011;25337;51.478;7.510;2022-08-19T02:04:08;20.55;;;12.68;;
39656;SDS011;25337;51.478;7.510;2022-08-19T02:06:34;20.60;;;11.88;;
39656;SDS011;25337;51.478;7.510;2022-08-19T02:09:02;20.70;;;11.90;;
39656;SDS011;25337;51.478;7.510;2022-08-19T02:11:30;19.60;;;11.43;;
39656;SDS011;25337;51.478;7.510;2022-08-19T02:13:58;20.40;;;10.90;;
39656;SDS011;25337;51.478;7.510;2022-08-19T02:16:26;20.38;;;11.18;;
39656;SDS011;25337;51.478;7.510;2022-08-19T02:18:52;17.65;;;10.68;;
39656;SDS011;25337;51.478;7.510;2022-08-19T02:21:19;18.17;;;10.90;;
39656;SDS011;25337;51.478;7.510;2022-08-19T02:23:46;17.40;;;11.20;;
39656;SDS011;25337;51.478;7.510;2022-08-19T02:26:12;18.52;;;11.30;;
39656;SDS011;25337;51.478;7.510;2022-08-19T02:28:38;20.33;;;11.60;;
39656;SDS011;25337;51.478;7.510;2022-08-19T02:31:08;22.02;;;12.00;;
39656;SDS011;25337;51.478;7.510;2022-08-19T02:33:39;20.10;;;11.65;;
39656;SDS011;25337;51.478;7.510;2022-08-19T02:36:06;17.55;;;10.73;;
39656;SDS011;25337;51.478;7.510;2022-08-19T02:38:32;24.48;;;13.20;;
39656;SDS011;25337;51.478;7.510;2022-08-19T02:41:01;23.13;;;12.52;;
39656;SDS011;25337;51.478;7.510;2022-08-19T02:43:29;24.70;;;12.30;;
39656;SDS011;25337;51.478;7.510;2022-08-19T02:45:56;24.45;;;12.95;;
39656;SDS011;25337;51.478;7.510;2022-08-19T02:48:23;21.73;;;12.77;;
39656;SDS011;25337;51.478;7.510;2022-08-19T02:50:50;21.67;;;13.15;;
39656;SDS011;25337;51.478;7.510;2022-08-19T02:55:47;28.52;;;13.57;;
39656;SDS011;25337;51.478;7.510;2022-08-19T02:58:14;27.40;;;15.57;;
39656;SDS011;25337;51.478;7.510;2022-08-19T03:00:41;25.63;;;14.82;;
39656;SDS011;25337;51.478;7.510;2022-08-19T03:03:09;30.95;;;15.50;;
39656;SDS011;25337;51.478;7.510;2022-08-19T03:05:35;25.92;;;15.18;;
39656;SDS011;25337;51.478;7.510;2022-08-19T03:08:00;30.05;;;15.38;;
39656;SDS011;25337;51.478;7.510;2022-08-19T03:10:26;29.05;;;16.20;;
39656;SDS011;25337;51.478;7.510;2022-08-19T03:12:52;27.67;;;15.10;;
39656;SDS011;25337;51.478;7.510;2022-08-19T03:15:17;27.02;;;15.38;;
39656;SDS011;25337;51.478;7.510;2022-08-19T03:17:43;28.38;;;15.52;;
39656;SDS011;25337;51.478;7.510;2022-08-19T03:20:09;28.73;;;15.45;;
39656;SDS011;25337;51.478;7.510;2022-08-19T03:22:35;27.50;;;15.70;;
39656;SDS011;25337;51.478;7.510;2022-08-19T03:25:00;27.13;;;15.00;;
39656;SDS011;25337;51.478;7.510;2022-08-19T03:27:26;24.00;;;13.50;;
39656;SDS011;25337;51.478;7.510;2022-08-19T03:29:52;25.02;;;14.00;;
39656;SDS011;25337;51.478;7.510;2022-08-19T03:32:17;26.73;;;15.13;;
39656;SDS011;25337;51.478;7.510;2022-08-19T03:34:43;24.63;;;14.55;;
39656;SDS011;25337;51.478;7.510;2022-08-19T03:37:09;25.38;;;14.05;;
39656;SDS011;25337;51.478;7.510;2022-08-19T03:39:39;24.88;;;14.90;;
39656;SDS011;25337;51.478;7.510;2022-08-19T03:42:07;25.77;;;14.73;;
39656;SDS011;25337;51.478;7.510;2022-08-19T03:44:33;25.00;;;14.43;;
39656;SDS011;25337;51.478;7.510;2022-08-19T03:47:01;24.95;;;14.20;;
39656;SDS011;25337;51.478;7.510;2022-08-19T03:49:27;28.20;;;15.35;;
39656;SDS011;25337;51.478;7.510;2022-08-19T03:51:55;29.77;;;15.48;;
39656;SDS011;25337;51.478;7.510;2022-08-19T03:54:23;28.02;;;15.70;;
39656;SDS011;25337;51.478;7.510;2022-08-19T03:56:50;28.60;;;15.43;;
39656;SDS011;25337;51.478;7.510;2022-08-19T03:59:29;25.67;;;15.00;;
39656;SDS011;25337;51.478;7.510;2022-08-19T04:01:57;28.13;;;14.73;;
39656;SDS011;25337;51.478;7.510;2022-08-19T04:04:24;26.38;;;14.40;;
39656;SDS011;25337;51.478;7.510;2022-08-19T04:06:51;27.80;;;15.73;;
39656;SDS011;25337;51.478;7.510;2022-08-19T04:09:17;29.15;;;15.27;;
39656;SDS011;25337;51.478;7.510;2022-08-19T04:11:45;29.23;;;16.13;;
39656;SDS011;25337;51.478;7.510;2022-08-19T04:14:14;29.73;;;16.95;;
39656;SDS011;25337;51.478;7.510;2022-08-19T04:16:44;35.83;;;19.40;;
39656;SDS011;25337;51.478;7.510;2022-08-19T04:19:11;34.55;;;19.55;;
39656;SDS011;25337;51.478;7.510;2022-08-19T04:21:38;39.00;;;21.08;;
39656;SDS011;25337;51.478;7.510;2022-08-19T04:24:04;39.60;;;21.02;;
39656;SDS011;25337;51.478;7.510;2022-08-19T04:26:32;40.70;;;21.75;;
39656;SDS011;25337;51.478;7.510;2022-08-19T04:29:00;41.15;;;21.17;;
39656;SDS011;25337;51.478;7.510;2022-08-19T04:31:29;42.00;;;21.25;;
39656;SDS011;25337;51.478;7.510;2022-08-19T04:33:57;39.20;;;20.92;;
39656;SDS011;25337;51.478;7.510;2022-08-19T04:36:26;39.92;;;20.98;;
39656;SDS011;25337;51.478;7.510;2022-08-19T04:38:58;40.05;;;20.63;;
39656;SDS011;25337;51.478;7.510;2022-08-19T04:41:25;40.03;;;21.33;;
39656;SDS011;25337;51.478;7.510;2022-08-19T04:44:10;49.03;;;24.73;;
39656;SDS011;25337;51.478;7.510;2022-08-19T04:46:36;54.75;;;27.15;;
39656;SDS011;25337;51.478;7.510;2022-08-19T04:49:03;47.58;;;23.83;;
39656;SDS011;25337;51.478;7.510;2022-08-19T04:51:30;42.63;;;24.00;;
39656;SDS011;25337;51.478;7.510;2022-08-19T04:53:57;47.50;;;24.10;;
39656;SDS011;25337;51.478;7.510;2022-08-19T04:56:24;35.47;;;18.95;;
39656;SDS011;25337;51.478;7.510;2022-08-19T04:58:51;35.92;;;17.88;;
39656;SDS011;25337;51.478;7.510;2022-08-19T05:01:19;39.92;;;21.23;;
39656;SDS011;25337;51.478;7.510;2022-08-19T05:03:46;42.25;;;21.92;;
39656;SDS011;25337;51.478;7.510;2022-08-19T05:06:13;45.13;;;23.83;;
39656;SDS011;25337;51.478;7.510;2022-08-19T05:08:40;43.30;;;22.52;;
39656;SDS011;25337;51.478;7.510;2022-08-19T05:13:45;47.17;;;24.48;;
39656;SDS011;25337;51.478;7.510;2022-08-19T05:16:12;50.58;;;24.63;;
39656;SDS011;25337;51.478;7.510;2022-08-19T05:18:46;43.35;;;23.55;;
39656;SDS011;25337;51.478;7.510;2022-08-19T05:21:31;40.90;;;20.35;;
39656;SDS011;25337;51.478;7.510;2022-08-19T05:24:16;41.88;;;22.17;;
39656;SDS011;25337;51.478;7.510;2022-08-19T05:26:43;42.72;;;22.55;;
39656;SDS011;25337;51.478;7.510;2022-08-19T05:29:12;42.85;;;21.95;;
39656;SDS011;25337;51.478;7.510;2022-08-19T05:31:39;45.03;;;23.02;;
39656;SDS011;25337;51.478;7.510;2022-08-19T05:34:05;38.85;;;22.40;;
39656;SDS011;25337;51.478;7.510;2022-08-19T05:36:34;42.25;;;23.20;;
39656;SDS011;25337;51.478;7.510;2022-08-19T05:39:03;42.67;;;23.10;;
39656;SDS011;25337;51.478;7.510;2022-08-19T05:41:29;40.15;;;21.90;;
39656;SDS011;25337;51.478;7.510;2022-08-19T05:44:00;38.80;;;21.27;;
39656;SDS011;25337;51.478;7.510;2022-08-19T05:46:31;44.33;;;22.85;;
39656;SDS011;25337;51.478;7.510;2022-08-19T05:48:57;40.28;;;22.15;;
39656;SDS011;25337;51.478;7.510;2022-08-19T05:51:24;39.35;;;22.17;;
39656;SDS011;25337;51.478;7.510;2022-08-19T05:53:50;38.67;;;20.60;;
39656;SDS011;25337;51.478;7.510;2022-08-19T05:56:16;37.00;;;21.55;;
39656;SDS011;25337;51.478;7.510;2022-08-19T05:58:43;37.42;;;20.73;;
39656;SDS011;25337;51.478;7.510;2022-08-19T06:01:15;35.85;;;19.38;;
39656;SDS011;25337;51.478;7.510;2022-08-19T06:03:42;35.70;;;19.85;;
39656;SDS011;25337;51.478;7.510;2022-08-19T06:06:09;37.45;;;20.63;;
39656;SDS011;25337;51.478;7.510;2022-08-19T06:08:36;34.08;;;19.95;;
39656;SDS011;25337;51.478;7.510;2022-08-19T06:12:03;38.72;;;20.92;;
39656;SDS011;25337;51.478;7.510;2022-08-19T06:14:05;36.80;;;20.60;;
39656;SDS011;25337;51.478;7.510;2022-08-19T06:16:33;37.72;;;21.38;;
39656;SDS011;25337;51.478;7.510;2022-08-19T06:19:02;35.78;;;20.55;;
39656;SDS011;25337;51.478;7.510;2022-08-19T06:21:29;35.80;;;19.40;;
39656;SDS011;25337;51.478;7.510;2022-08-19T06:23:55;33.60;;;18.60;;
39656;SDS011;25337;51.478;7.510;2022-08-19T06:26:22;33.15;;;18.15;;
39656;SDS011;25337;51.478;7.510;2022-08-19T06:28:49;31.13;;;19.02;;
39656;SDS011;25337;51.478;7.510;2022-08-19T06:31:20;33.72;;;17.67;;
39656;SDS011;25337;51.478;7.510;2022-08-19T06:33:51;30.48;;;18.00;;
39656;SDS011;25337;51.478;7.510;2022-08-19T06:38:56;28.55;;;17.80;;
39656;SDS011;25337;51.478;7.510;2022-08-19T06:41:40;30.02;;;18.40;;
39656;SDS011;25337;51.478;7.510;2022-08-19T06:44:09;32.40;;;18.27;;
39656;SDS011;25337;51.478;7.510;2022-08-19T06:46:36;33.78;;;18.45;;
39656;SDS011;25337;51.478;7.510;2022-08-19T06:49:02;31.27;;;18.95;;
39656;SDS011;25337;51.478;7.510;2022-08-19T06:51:29;28.35;;;16.95;;
39656;SDS011;25337;51.478;7.510;2022-08-19T06:53:56;29.33;;;17.05;;
39656;SDS011;25337;51.478;7.510;2022-08-19T06:56:27;29.58;;;16.55;;
39656;SDS011;25337;51.478;7.510;2022-08-19T06:58:57;26.73;;;15.65;;
39656;SDS011;25337;51.478;7.510;2022-08-19T07:01:23;30.00;;;16.75;;
39656;SDS011;25337;51.478;7.510;2022-08-19T07:03:48;27.50;;;15.90;;
39656;SDS011;25337;51.478;7.510;2022-08-19T07:06:15;29.88;;;16.77;;
39656;SDS011;25337;51.478;7.510;2022-08-19T07:11:12;24.58;;;14.73;;
39656;SDS011;25337;51.478;7.510;2022-08-19T07:13:39;26.23;;;15.70;;
39656;SDS011;25337;51.478;7.510;2022-08-19T07:16:09;23.85;;;14.02;;
39656;SDS011;25337;51.478;7.510;2022-08-19T07:18:39;22.73;;;13.48;;
39656;SDS011;25337;51.478;7.510;2022-08-19T07:21:07;24.67;;;12.60;;
39656;SDS011;25337;51.478;7.510;2022-08-19T07:23:39;20.48;;;11.43;;
39656;SDS011;25337;51.478;7.510;2022-08-19T07:26:10;27.73;;;12.77;;
39656;SDS011;25337;51.478;7.510;2022-08-19T07:28:39;23.63;;;12.93;;
39656;SDS011;25337;51.478;7.510;2022-08-19T07:31:06;23.60;;;12.18;;
39656;SDS011;25337;51.478;7.510;2022-08-19T07:33:32;27.23;;;13.05;;
39656;SDS011;25337;51.478;7.510;2022-08-19T07:36:00;22.38;;;12.07;;
39656;SDS011;25337;51.478;7.510;2022-08-19T07:38:26;24.63;;;12.68;;
39656;SDS011;25337;51.478;7.510;2022-08-19T07:40:52;21.38;;;11.93;;
39656;SDS011;25337;51.478;7.510;2022-08-19T07:43:19;24.08;;;12.75;;
39656;SDS011;25337;51.478;7.510;2022-08-19T07:45:49;21.35;;;11.80;;
39656;SDS011;25337;51.478;7.510;2022-08-19T07:48:16;21.33;;;12.38;;
39656;SDS011;25337;51.478;7.510;2022-08-19T07:50:42;24.13;;;12.73;;
39656;SDS011;25337;51.478;7.510;2022-08-19T07:53:08;23.40;;;12.50;;
39656;SDS011;25337;51.478;7.510;2022-08-19T07:55:33;22.58;;;13.07;;
39656;SDS011;25337;51.478;7.510;2022-08-19T07:57:59;26.38;;;12.40;;
39656;SDS011;25337;51.478;7.510;2022-08-19T08:00:25;26.52;;;12.07;;
39656;SDS011;25337;51.478;7.510;2022-08-19T08:02:52;21.25;;;11.95;;
39656;SDS011;25337;51.478;7.510;2022-08-19T08:05:18;23.45;;;12.38;;
39656;SDS011;25337;51.478;7.510;2022-08-19T08:08:02;23.00;;;11.77;;
39656;SDS011;25337;51.478;7.510;2022-08-19T08:10:46;25.75;;;13.30;;
39656;SDS011;25337;51.478;7.510;2022-08-19T08:13:12;24.55;;;12.65;;
39656;SDS011;25337;51.478;7.510;2022-08-19T08:15:38;23.38;;;12.88;;
39656;SDS011;25337;51.478;7.510;2022-08-19T08:18:04;22.40;;;12.80;;
39656;SDS011;25337;51.478;7.510;2022-08-19T08:20:30;23.92;;;12.93;;
39656;SDS011;25337;51.478;7.510;2022-08-19T08:22:56;21.23;;;11.40;;
39656;SDS011;25337;51.478;7.510;2022-08-19T08:25:40;19.67;;;11.38;;
39656;SDS011;25337;51.478;7.510;2022-08-19T08:28:06;23.08;;;12.45;;
39656;SDS011;25337;51.478;7.510;2022-08-19T08:30:33;18.90;;;11.10;;
39656;SDS011;25337;51.478;7.510;2022-08-19T08:33:01;24.40;;;12.05;;
39656;SDS011;25337;51.478;7.510;2022-08-19T08:35:27;22.60;;;12.38;;
39656;SDS011;25337;51.478;7.510;2022-08-19T08:37:54;20.55;;;12.63;;
39656;SDS011;25337;51.478;7.510;2022-08-19T08:42:54;23.88;;;12.38;;
39656;SDS011;25337;51.478;7.510;2022-08-19T08:45:23;24.15;;;12.45;;
39656;SDS011;25337;51.478;7.510;2022-08-19T08:47:50;24.63;;;10.43;;
39656;SDS011;25337;51.478;7.510;2022-08-19T08:50:24;19.37;;;10.93;;
39656;SDS011;25337;51.478;7.510;2022-08-19T08:53:04;19.88;;;11.20;;
39656;SDS011;25337;51.478;7.510;2022-08-19T08:55:31;20.00;;;11.05;;
39656;SDS011;25337;51.478;7.510;2022-08-19T08:57:59;17.95;;;10.43;;
39656;SDS011;25337;51.478;7.510;2022-08-19T09:17:10;19.27;;;11.07;;
39656;SDS011;25337;51.478;7.510;2022-08-19T09:19:51;15.02;;;9.85;;
39656;SDS011;25337;51.478;7.510;2022-08-19T09:22:38;18.42;;;10.52;;
39656;SDS011;25337;51.478;7.510;2022-08-19T09:25:06;15.73;;;10.05;;
39656;SDS011;25337;51.478;7.510;2022-08-19T09:27:33;16.45;;;9.50;;
39656;SDS011;25337;51.478;7.510;2022-08-19T09:30:03;18.58;;;11.88;;
39656;SDS011;25337;51.478;7.510;2022-08-19T09:32:30;16.77;;;10.13;;
39656;SDS011;25337;51.478;7.510;2022-08-19T09:34:55;18.50;;;11.35;;
39656;SDS011;25337;51.478;7.510;2022-08-19T09:37:23;19.15;;;12.77;;
39656;SDS011;25337;51.478;7.510;2022-08-19T09:39:49;18.65;;;10.00;;
39656;SDS011;25337;51.478;7.510;2022-08-19T09:42:15;14.57;;;9.40;;
39656;SDS011;25337;51.478;7.510;2022-08-19T09:44:42;17.23;;;10.57;;
39656;SDS011;25337;51.478;7.510;2022-08-19T09:47:09;17.02;;;9.80;;
39656;SDS011;25337;51.478;7.510;2022-08-19T09:49:36;19.33;;;10.55;;
39656;SDS011;25337;51.478;7.510;2022-08-19T09:52:04;20.02;;;10.05;;
39656;SDS011;25337;51.478;7.510;2022-08-19T09:54:32;14.48;;;9.35;;
39656;SDS011;25337;51.478;7.510;2022-08-19T09:56:58;17.65;;;9.77;;
39656;SDS011;25337;51.478;7.510;2022-08-19T09:59:28;17.02;;;10.57;;
39656;SDS011;25337;51.478;7.510;2022-08-19T10:01:54;18.77;;;10.98;;
39656;SDS011;25337;51.478;7.510;2022-08-19T10:04:20;17.50;;;10.55;;
39656;SDS011;25337;51.478;7.510;2022-08-19T10:06:46;16.45;;;9.38;;
39656;SDS011;25337;51.478;7.510;2022-08-19T10:09:13;19.55;;;9.68;;
39656;SDS011;25337;51.478;7.510;2022-08-19T10:11:44;14.85;;;10.32;;
39656;SDS011;25337;51.478;7.510;2022-08-19T10:14:14;15.93;;;10.77;;
39656;SDS011;25337;51.478;7.510;2022-08-19T10:16:41;16.67;;;10.48;;
39656;SDS011;25337;51.478;7.510;2022-08-19T10:19:33;19.13;;;12.10;;
39656;SDS011;25337;51.478;7.510;2022-08-19T10:22:04;20.52;;;14.73;;
39656;SDS011;25337;51.478;7.510;2022-08-19T10:24:32;21.20;;;15.63;;
39656;SDS011;25337;51.478;7.510;2022-08-19T10:26:59;22.58;;;15.32;;
39656;SDS011;25337;51.478;7.510;2022-08-19T10:29:30;21.30;;;12.48;;
39656;SDS011;25337;51.478;7.510;2022-08-19T10:31:57;19.27;;;13.30;;
39656;SDS011;25337;51.478;7.510;2022-08-19T10:34:25;19.63;;;13.68;;
39656;SDS011;25337;51.478;7.510;2022-08-19T10:36:51;22.45;;;13.65;;
39656;SDS011;25337;51.478;7.510;2022-08-19T10:39:17;21.00;;;13.23;;
39656;SDS011;25337;51.478;7.510;2022-08-19T10:41:42;18.52;;;11.70;;
39656;SDS011;25337;51.478;7.510;2022-08-19T10:44:09;20.33;;;12.30;;
39656;SDS011;25337;51.478;7.510;2022-08-19T10:46:37;21.92;;;12.77;;
39656;SDS011;25337;51.478;7.510;2022-08-19T10:49:07;16.27;;;10.85;;
39656;SDS011;25337;51.478;7.510;2022-08-19T10:51:34;17.05;;;9.82;;
39656;SDS011;25337;51.478;7.510;2022-08-19T10:54:19;13.68;;;9.25;;
39656;SDS011;25337;51.478;7.510;2022-08-19T10:56:45;23.25;;;12.80;;
39656;SDS011;25337;51.478;7.510;2022-08-19T10:59:24;17.80;;;11.93;;
39656;SDS011;25337;51.478;7.510;2022-08-19T11:01:52;18.13;;;10.70;;
39656;SDS011;25337;51.478;7.510;2022-08-19T11:04:23;18.02;;;11.75;;
39656;SDS011;25337;51.478;7.510;2022-08-19T11:06:49;18.88;;;12.27;;
39656;SDS011;25337;51.478;7.510;2022-08-19T11:09:15;18.65;;;9.00;;
39656;SDS011;25337;51.478;7.510;2022-08-19T11:11:49;16.25;;;10.90;;
39656;SDS011;25337;51.478;7.510;2022-08-19T11:14:16;17.95;;;10.70;;
39656;SDS011;25337;51.478;7.510;2022-08-19T11:16:44;17.95;;;11.57;;
39656;SDS011;25337;51.478;7.510;2022-08-19T11:19:11;15.55;;;10.75;;
39656;SDS011;25337;51.478;7.510;2022-08-19T11:21:38;19.90;;;11.70;;
39656;SDS011;25337;51.478;7.510;2022-08-19T11:24:08;15.23;;;9.63;;
39656;SDS011;25337;51.478;7.510;2022-08-19T11:26:36;17.30;;;9.38;;
39656;SDS011;25337;51.478;7.510;2022-08-19T11:29:03;16.60;;;8.68;;
39656;SDS011;25337;51.478;7.510;2022-08-19T11:31:31;15.95;;;8.05;;
39656;SDS011;25337;51.478;7.510;2022-08-19T11:34:01;12.90;;;7.45;;
39656;SDS011;25337;51.478;7.510;2022-08-19T11:36:28;11.57;;;6.72;;
39656;SDS011;25337;51.478;7.510;2022-08-19T11:38:54;13.02;;;7.78;;
39656;SDS011;25337;51.478;7.510;2022-08-19T11:41:21;13.35;;;8.75;;
39656;SDS011;25337;51.478;7.510;2022-08-19T11:46:17;15.10;;;8.30;;
39656;SDS011;25337;51.478;7.510;2022-08-19T11:48:43;14.07;;;9.23;;
39656;SDS011;25337;51.478;7.510;2022-08-19T11:51:13;12.45;;;6.82;;
39656;SDS011;25337;51.478;7.510;2022-08-19T11:53:40;13.93;;;9.50;;
39656;SDS011;25337;51.478;7.510;2022-08-19T11:56:07;14.48;;;8.98;;
39656;SDS011;25337;51.478;7.510;2022-08-19T11:58:34;14.15;;;8.48;;
39656;SDS011;25337;51.478;7.510;2022-08-19T12:01:00;10.50;;;6.15;;
39656;SDS011;25337;51.478;7.510;2022-08-19T12:03:29;12.05;;;7.50;;
39656;SDS011;25337;51.478;7.510;2022-08-19T12:05:55;12.20;;;7.40;;
39656;SDS011;25337;51.478;7.510;2022-08-19T12:08:21;13.68;;;8.95;;
39656;SDS011;25337;51.478;7.510;2022-08-19T12:10:47;13.50;;;7.38;;
39656;SDS011;25337;51.478;7.510;2022-08-19T12:13:13;12.80;;;7.15;;
39656;SDS011;25337;51.478;7.510;2022-08-19T12:15:46;12.13;;;8.43;;
39656;SDS011;25337;51.478;7.510;2022-08-19T12:18:12;19.63;;;10.35;;
39656;SDS011;25337;51.478;7.510;2022-08-19T12:20:39;16.85;;;11.35;;
39656;SDS011;25337;51.478;7.510;2022-08-19T12:23:07;19.23;;;13.63;;
39656;SDS011;25337;51.478;7.510;2022-08-19T12:25:34;20.92;;;12.32;;
39656;SDS011;25337;51.478;7.510;2022-08-19T12:28:00;18.95;;;14.35;;
39656;SDS011;25337;51.478;7.510;2022-08-19T12:30:26;19.02;;;14.38;;
39656;SDS011;25337;51.478;7.510;2022-08-19T12:32:52;20.05;;;14.57;;
39656;SDS011;25337;51.478;7.510;2022-08-19T12:35:18;18.42;;;13.60;;
39656;SDS011;25337;51.478;7.510;2022-08-19T12:37:47;18.17;;;12.98;;
39656;SDS011;25337;51.478;7.510;2022-08-19T12:40:14;16.00;;;10.63;;
39656;SDS011;25337;51.478;7.510;2022-08-19T12:42:42;17.77;;;12.77;;
39656;SDS011;25337;51.478;7.510;2022-08-19T12:45:09;16.42;;;10.98;;
39656;SDS011;25337;51.478;7.510;2022-08-19T12:47:36;16.02;;;11.70;;
39656;SDS011;25337;51.478;7.510;2022-08-19T12:50:02;15.68;;;10.88;;
39656;SDS011;25337;51.478;7.510;2022-08-19T12:52:33;15.82;;;10.20;;
39656;SDS011;25337;51.478;7.510;2022-08-19T12:55:01;16.20;;;9.25;;
39656;SDS011;25337;51.478;7.510;2022-08-19T12:57:28;14.43;;;10.18;;
39656;SDS011;25337;51.478;7.510;2022-08-19T12:59:57;13.48;;;7.78;;
39656;SDS011;25337;51.478;7.510;2022-08-19T13:02:44;13.65;;;8.65;;
39656;SDS011;25337;51.478;7.510;2022-08-19T13:05:12;15.30;;;10.18;;
39656;SDS011;25337;51.478;7.510;2022-08-19T13:07:40;18.05;;;11.52;;
39656;SDS011;25337;51.478;7.510;2022-08-19T13:10:11;21.08;;;11.05;;
39656;SDS011;25337;51.478;7.510;2022-08-19T13:12:40;19.15;;;12.25;;
39656;SDS011;25337;51.478;7.510;2022-08-19T13:15:07;15.18;;;10.43;;
39656;SDS011;25337;51.478;7.510;2022-08-19T13:17:34;18.20;;;10.65;;
39656;SDS011;25337;51.478;7.510;2022-08-19T13:20:00;17.13;;;11.52;;
39656;SDS011;25337;51.478;7.510;2022-08-19T13:22:26;14.82;;;9.70;;
39656;SDS011;25337;51.478;7.510;2022-08-19T13:24:52;15.45;;;8.10;;
39656;SDS011;25337;51.478;7.510;2022-08-19T13:27:18;13.93;;;9.93;;
39656;SDS011;25337;51.478;7.510;2022-08-19T13:29:43;15.52;;;10.70;;
39656;SDS011;25337;51.478;7.510;2022-08-19T13:32:28;14.63;;;9.88;;
39656;SDS011;25337;51.478;7.510;2022-08-19T13:35:13;15.13;;;9.60;;
39656;SDS011;25337;51.478;7.510;2022-08-19T13:37:40;13.93;;;8.15;;
39656;SDS011;25337;51.478;7.510;2022-08-19T13:42:38;12.55;;;7.63;;
39656;SDS011;25337;51.478;7.510;2022-08-19T13:45:04;13.70;;;7.72;;
39656;SDS011;25337;51.478;7.510;2022-08-19T13:47:31;11.98;;;7.45;;
39656;SDS011;25337;51.478;7.510;2022-08-19T13:49:59;11.18;;;6.85;;
39656;SDS011;25337;51.478;7.510;2022-08-19T13:52:25;12.73;;;7.70;;
39656;SDS011;25337;51.478;7.510;2022-08-19T13:54:51;14.10;;;7.15;;
39656;SDS011;25337;51.478;7.510;2022-08-19T13:57:17;10.00;;;6.93;;
39656;SDS011;25337;51.478;7.510;2022-08-19T13:59:45;12.02;;;7.22;;
39656;SDS011;25337;51.478;7.510;2022-08-19T14:02:11;13.03;;;6.87;;
39656;SDS011;25337;51.478;7.510;2022-08-19T14:04:36;13.35;;;7.57;;
39656;SDS011;25337;51.478;7.510;2022-08-19T14:07:02;12.50;;;6.82;;
39656;SDS011;25337;51.478;7.510;2022-08-19T14:09:29;14.55;;;7.78;;
39656;SDS011;25337;51.478;7.510;2022-08-19T14:11:55;13.48;;;6.57;;
39656;SDS011;25337;51.478;7.510;2022-08-19T14:14:21;9.65;;;6.25;;
39656;SDS011;25337;51.478;7.510;2022-08-19T14:16:47;11.02;;;6.20;;
39656;SDS011;25337;51.478;7.510;2022-08-19T14:19:13;9.85;;;6.32;;
39656;SDS011;25337;51.478;7.510;2022-08-19T14:21:38;12.13;;;6.55;;
39656;SDS011;25337;51.478;7.510;2022-08-19T14:24:06;13.85;;;7.10;;
39656;SDS011;25337;51.478;7.510;2022-08-19T14:26:32;10.95;;;6.15;;
39656;SDS011;25337;51.478;7.510;2022-08-19T14:28:57;10.80;;;7.07;;
39656;SDS011;25337;51.478;7.510;2022-08-19T14:31:23;10.10;;;6.25;;
39656;SDS011;25337;51.478;7.510;2022-08-19T14:33:50;11.68;;;7.45;;
39656;SDS011;25337;51.478;7.510;2022-08-19T14:36:17;14.32;;;7.88;;
39656;SDS011;25337;51.478;7.510;2022-08-19T14:38:44;13.05;;;7.20;;
39656;SDS011;25337;51.478;7.510;2022-08-19T14:41:14;12.18;;;6.88;;
39656;SDS011;25337;51.478;7.510;2022-08-19T14:43:43;11.45;;;6.68;;
39656;SDS011;25337;51.478;7.510;2022-08-19T14:46:15;11.43;;;6.90;;
39656;SDS011;25337;51.478;7.510;2022-08-19T14:48:44;10.82;;;7.35;;
39656;SDS011;25337;51.478;7.510;2022-08-19T14:51:10;11.38;;;7.30;;
39656;SDS011;25337;51.478;7.510;2022-08-19T14:53:36;11.73;;;6.95;;
39656;SDS011;25337;51.478;7.510;2022-08-19T14:56:06;16.80;;;7.15;;
39656;SDS011;25337;51.478;7.510;2022-08-19T14:58:34;11.35;;;7.20;;
39656;SDS011;25337;51.478;7.510;2022-08-19T15:01:00;10.60;;;7.30;;
39656;SDS011;25337;51.478;7.510;2022-08-19T15:03:26;11.50;;;7.57;;
39656;SDS011;25337;51.478;7.510;2022-08-19T15:05:52;10.18;;;6.78;;
39656;SDS011;25337;51.478;7.510;2022-08-19T15:08:18;11.98;;;6.82;;
39656;SDS011;25337;51.478;7.510;2022-08-19T15:10:45;9.77;;;6.47;;